sensor_id;sensor_type;location;lat;lon;timestamp;P1;durP1;ratioP1;P2;durP2;ratioP2
36189;SDS011;22232;50.914;13.858;2024-03-02T00:01:07;98.32;;;48.47;;
36189;SDS011;22232;50.914;13.858;2024-03-02T00:03:34;95.60;;;48.10;;
36189;SDS011;22232;50.914;13.858;2024-03-02T00:06:04;106.60;;;49.45;;
36189;SDS011;22232;50.914;13.858;2024-03-02T00:08:32;108.70;;;51.58;;
36189;SDS011;22232;50.914;13.858;2024-03-02T00:11:01;101.72;;;49.75;;
36189;SDS011;22232;50.914;13.858;2024-03-02T00:13:32;102.28;;;48.65;;
36189;SDS011;22232;50.914;13.858;2024-03-02T00:16:00;101.22;;;47.67;;
36189;SDS011;22232;50.914;13.858;2024-03-02T00:18:35;94.55;;;45.58;;
36189;SDS011;22232;50.914;13.858;2024-03-02T00:21:03;84.85;;;42.95;;
36189;SDS011;22232;50.914;13.858;2024-03-02T00:23:36;87.85;;;42.67;;
36189;SDS011;22232;50.914;13.858;2024-03-02T00:26:04;85.45;;;41.67;;
36189;SDS011;22232;50.914;13.858;2024-03-02T00:28:36;89.75;;;40.78;;
36189;SDS011;22232;50.914;13.858;2024-03-02T00:31:08;78.65;;;41.58;;
36189;SDS011;22232;50.914;13.858;2024-03-02T00:33:58;85.28;;;41.20;;
36189;SDS011;22232;50.914;13.858;2024-03-02T00:36:33;86.60;;;40.97;;
36189;SDS011;22232;50.914;13.858;2024-03-02T00:39:00;89.57;;;43.28;;
36189;SDS011;22232;50.914;13.858;2024-03-02T00:41:31;101.80;;;45.92;;
36189;SDS011;22232;50.914;13.858;2024-03-02T00:46:28;99.22;;;45.42;;
36189;SDS011;22232;50.914;13.858;2024-03-02T00:49:00;98.43;;;45.05;;
36189;SDS011;22232;50.914;13.858;2024-03-02T00:51:30;105.65;;;47.03;;
36189;SDS011;22232;50.914;13.858;2024-03-02T00:54:08;102.53;;;45.75;;
36189;SDS011;22232;50.914;13.858;2024-03-02T00:56:37;102.30;;;46.25;;
36189;SDS011;22232;50.914;13.858;2024-03-02T00:59:05;93.97;;;44.70;;
36189;SDS011;22232;50.914;13.858;2024-03-02T01:01:33;90.43;;;43.42;;
36189;SDS011;22232;50.914;13.858;2024-03-02T01:04:00;97.32;;;46.15;;
36189;SDS011;22232;50.914;13.858;2024-03-02T01:06:28;98.30;;;45.42;;
36189;SDS011;22232;50.914;13.858;2024-03-02T01:08:55;111.28;;;49.08;;
36189;SDS011;22232;50.914;13.858;2024-03-02T01:11:23;102.85;;;48.08;;
36189;SDS011;22232;50.914;13.858;2024-03-02T01:13:51;101.78;;;48.17;;
36189;SDS011;22232;50.914;13.858;2024-03-02T01:16:21;106.13;;;48.15;;
36189;SDS011;22232;50.914;13.858;2024-03-02T01:18:49;108.47;;;47.22;;
36189;SDS011;22232;50.914;13.858;2024-03-02T01:21:17;105.88;;;47.75;;
36189;SDS011;22232;50.914;13.858;2024-03-02T01:23:45;105.63;;;48.30;;
36189;SDS011;22232;50.914;13.858;2024-03-02T01:26:13;110.63;;;48.17;;
36189;SDS011;22232;50.914;13.858;2024-03-02T01:28:40;107.53;;;47.78;;
36189;SDS011;22232;50.914;13.858;2024-03-02T01:31:08;108.93;;;48.58;;
36189;SDS011;22232;50.914;13.858;2024-03-02T01:33:35;110.28;;;50.08;;
36189;SDS011;22232;50.914;13.858;2024-03-02T01:36:03;115.05;;;50.15;;
36189;SDS011;22232;50.914;13.858;2024-03-02T01:38:30;122.18;;;52.50;;
36189;SDS011;22232;50.914;13.858;2024-03-02T01:40:58;114.05;;;51.35;;
36189;SDS011;22232;50.914;13.858;2024-03-02T01:43:26;122.50;;;52.25;;
36189;SDS011;22232;50.914;13.858;2024-03-02T01:45:53;121.72;;;52.20;;
36189;SDS011;22232;50.914;13.858;2024-03-02T01:48:21;123.00;;;52.75;;
36189;SDS011;22232;50.914;13.858;2024-03-02T01:50:48;116.07;;;50.50;;
36189;SDS011;22232;50.914;13.858;2024-03-02T01:53:16;119.55;;;52.95;;
36189;SDS011;22232;50.914;13.858;2024-03-02T01:55:44;120.80;;;52.00;;
36189;SDS011;22232;50.914;13.858;2024-03-02T01:58:11;118.28;;;49.80;;
36189;SDS011;22232;50.914;13.858;2024-03-02T02:00:39;113.10;;;50.95;;
36189;SDS011;22232;50.914;13.858;2024-03-02T02:03:07;115.60;;;50.35;;
36189;SDS011;22232;50.914;13.858;2024-03-02T02:05:34;121.13;;;51.65;;
36189;SDS011;22232;50.914;13.858;2024-03-02T02:08:02;119.70;;;52.83;;
36189;SDS011;22232;50.914;13.858;2024-03-02T02:10:30;119.38;;;50.67;;
36189;SDS011;22232;50.914;13.858;2024-03-02T02:12:58;114.30;;;48.17;;
36189;SDS011;22232;50.914;13.858;2024-03-02T02:15:26;123.82;;;50.72;;
36189;SDS011;22232;50.914;13.858;2024-03-02T02:17:56;122.47;;;49.75;;
36189;SDS011;22232;50.914;13.858;2024-03-02T02:20:25;125.43;;;51.40;;
36189;SDS011;22232;50.914;13.858;2024-03-02T02:25:27;123.75;;;50.47;;
36189;SDS011;22232;50.914;13.858;2024-03-02T02:27:57;129.00;;;52.33;;
36189;SDS011;22232;50.914;13.858;2024-03-02T02:30:26;121.10;;;50.85;;
36189;SDS011;22232;50.914;13.858;2024-03-02T02:32:58;125.45;;;51.60;;
36189;SDS011;22232;50.914;13.858;2024-03-02T02:35:26;123.50;;;51.08;;
36189;SDS011;22232;50.914;13.858;2024-03-02T02:37:54;136.15;;;51.67;;
36189;SDS011;22232;50.914;13.858;2024-03-02T02:40:23;125.70;;;51.58;;
36189;SDS011;22232;50.914;13.858;2024-03-02T02:42:51;133.00;;;50.60;;
36189;SDS011;22232;50.914;13.858;2024-03-02T02:45:21;130.93;;;51.55;;
36189;SDS011;22232;50.914;13.858;2024-03-02T02:47:49;137.65;;;53.58;;
36189;SDS011;22232;50.914;13.858;2024-03-02T02:50:17;127.03;;;50.53;;
36189;SDS011;22232;50.914;13.858;2024-03-02T02:52:44;134.40;;;50.88;;
36189;SDS011;22232;50.914;13.858;2024-03-02T02:55:12;138.23;;;51.65;;
36189;SDS011;22232;50.914;13.858;2024-03-02T02:57:41;142.07;;;53.75;;
36189;SDS011;22232;50.914;13.858;2024-03-02T03:02:48;140.50;;;52.20;;
36189;SDS011;22232;50.914;13.858;2024-03-02T03:05:17;132.73;;;52.80;;
36189;SDS011;22232;50.914;13.858;2024-03-02T03:07:45;134.50;;;50.70;;
36189;SDS011;22232;50.914;13.858;2024-03-02T03:10:15;119.88;;;46.85;;
36189;SDS011;22232;50.914;13.858;2024-03-02T03:12:44;125.78;;;50.50;;
36189;SDS011;22232;50.914;13.858;2024-03-02T03:15:11;133.05;;;51.10;;
36189;SDS011;22232;50.914;13.858;2024-03-02T03:17:40;118.43;;;47.25;;
36189;SDS011;22232;50.914;13.858;2024-03-02T03:20:08;113.38;;;45.90;;
36189;SDS011;22232;50.914;13.858;2024-03-02T03:22:39;102.70;;;43.90;;
36189;SDS011;22232;50.914;13.858;2024-03-02T03:25:07;117.25;;;48.80;;
36189;SDS011;22232;50.914;13.858;2024-03-02T03:27:37;106.03;;;45.78;;
36189;SDS011;22232;50.914;13.858;2024-03-02T03:30:05;112.45;;;46.28;;
36189;SDS011;22232;50.914;13.858;2024-03-02T03:32:34;106.95;;;42.88;;
36189;SDS011;22232;50.914;13.858;2024-03-02T03:35:01;101.93;;;44.08;;
36189;SDS011;22232;50.914;13.858;2024-03-02T03:37:30;103.28;;;42.28;;
36189;SDS011;22232;50.914;13.858;2024-03-02T03:40:02;92.22;;;41.85;;
36189;SDS011;22232;50.914;13.858;2024-03-02T03:42:30;98.40;;;42.47;;
36189;SDS011;22232;50.914;13.858;2024-03-02T03:44:57;94.80;;;41.97;;
36189;SDS011;22232;50.914;13.858;2024-03-02T03:47:25;101.78;;;42.78;;
36189;SDS011;22232;50.914;13.858;2024-03-02T03:49:53;97.22;;;40.20;;
36189;SDS011;22232;50.914;13.858;2024-03-02T03:52:20;92.78;;;42.42;;
36189;SDS011;22232;50.914;13.858;2024-03-02T03:54:48;93.32;;;41.53;;
36189;SDS011;22232;50.914;13.858;2024-03-02T03:57:16;98.72;;;41.72;;
36189;SDS011;22232;50.914;13.858;2024-03-02T03:59:44;102.15;;;43.75;;
36189;SDS011;22232;50.914;13.858;2024-03-02T04:02:13;104.95;;;41.75;;
36189;SDS011;22232;50.914;13.858;2024-03-02T04:04:41;103.07;;;44.65;;
36189;SDS011;22232;50.914;13.858;2024-03-02T04:07:08;109.00;;;45.55;;
36189;SDS011;22232;50.914;13.858;2024-03-02T04:09:36;98.10;;;42.78;;
36189;SDS011;22232;50.914;13.858;2024-03-02T04:12:03;95.18;;;39.13;;
36189;SDS011;22232;50.914;13.858;2024-03-02T04:14:31;96.63;;;40.42;;
36189;SDS011;22232;50.914;13.858;2024-03-02T04:16:58;94.63;;;41.53;;
36189;SDS011;22232;50.914;13.858;2024-03-02T04:19:26;89.93;;;39.67;;
36189;SDS011;22232;50.914;13.858;2024-03-02T04:21:54;81.70;;;35.35;;
36189;SDS011;22232;50.914;13.858;2024-03-02T04:24:21;72.35;;;34.88;;
36189;SDS011;22232;50.914;13.858;2024-03-02T04:26:49;77.70;;;35.53;;
36189;SDS011;22232;50.914;13.858;2024-03-02T04:29:17;81.40;;;36.40;;
36189;SDS011;22232;50.914;13.858;2024-03-02T04:31:44;82.18;;;37.40;;
36189;SDS011;22232;50.914;13.858;2024-03-02T04:34:12;84.97;;;38.17;;
36189;SDS011;22232;50.914;13.858;2024-03-02T04:36:39;80.03;;;35.88;;
36189;SDS011;22232;50.914;13.858;2024-03-02T04:39:07;87.78;;;39.30;;
36189;SDS011;22232;50.914;13.858;2024-03-02T04:41:36;83.07;;;37.00;;
36189;SDS011;22232;50.914;13.858;2024-03-02T04:44:04;81.93;;;37.05;;
36189;SDS011;22232;50.914;13.858;2024-03-02T04:46:32;72.22;;;34.28;;
36189;SDS011;22232;50.914;13.858;2024-03-02T04:48:59;75.68;;;36.90;;
36189;SDS011;22232;50.914;13.858;2024-03-02T04:51:27;82.20;;;36.20;;
36189;SDS011;22232;50.914;13.858;2024-03-02T04:53:54;78.20;;;36.97;;
36189;SDS011;22232;50.914;13.858;2024-03-02T04:56:22;80.72;;;37.10;;
36189;SDS011;22232;50.914;13.858;2024-03-02T04:58:52;79.55;;;37.88;;
36189;SDS011;22232;50.914;13.858;2024-03-02T05:01:20;81.38;;;36.50;;
36189;SDS011;22232;50.914;13.858;2024-03-02T05:03:47;81.28;;;38.35;;
36189;SDS011;22232;50.914;13.858;2024-03-02T05:06:15;88.47;;;38.42;;
36189;SDS011;22232;50.914;13.858;2024-03-02T05:08:43;80.05;;;38.25;;
36189;SDS011;22232;50.914;13.858;2024-03-02T05:11:12;81.95;;;38.17;;
36189;SDS011;22232;50.914;13.858;2024-03-02T05:13:58;84.00;;;37.88;;
36189;SDS011;22232;50.914;13.858;2024-03-02T05:16:26;86.65;;;39.75;;
36189;SDS011;22232;50.914;13.858;2024-03-02T05:18:53;85.82;;;39.78;;
36189;SDS011;22232;50.914;13.858;2024-03-02T05:21:21;87.05;;;40.72;;
36189;SDS011;22232;50.914;13.858;2024-03-02T05:23:49;88.25;;;40.17;;
36189;SDS011;22232;50.914;13.858;2024-03-02T05:26:17;81.53;;;39.72;;
36189;SDS011;22232;50.914;13.858;2024-03-02T05:28:45;85.28;;;39.65;;
36189;SDS011;22232;50.914;13.858;2024-03-02T05:31:14;83.53;;;40.08;;
36189;SDS011;22232;50.914;13.858;2024-03-02T05:33:42;87.15;;;39.47;;
36189;SDS011;22232;50.914;13.858;2024-03-02T05:36:10;88.55;;;41.28;;
36189;SDS011;22232;50.914;13.858;2024-03-02T05:38:38;84.57;;;39.85;;
36189;SDS011;22232;50.914;13.858;2024-03-02T05:41:05;89.10;;;40.38;;
36189;SDS011;22232;50.914;13.858;2024-03-02T05:43:33;86.50;;;40.17;;
36189;SDS011;22232;50.914;13.858;2024-03-02T05:46:00;91.05;;;39.60;;
36189;SDS011;22232;50.914;13.858;2024-03-02T05:48:28;93.88;;;40.42;;
36189;SDS011;22232;50.914;13.858;2024-03-02T05:50:56;87.57;;;40.60;;
36189;SDS011;22232;50.914;13.858;2024-03-02T05:53:23;92.45;;;40.55;;
36189;SDS011;22232;50.914;13.858;2024-03-02T05:55:51;91.55;;;40.00;;
36189;SDS011;22232;50.914;13.858;2024-03-02T05:58:22;81.93;;;35.58;;
36189;SDS011;22232;50.914;13.858;2024-03-02T06:01:01;92.90;;;40.65;;
36189;SDS011;22232;50.914;13.858;2024-03-02T06:03:28;87.82;;;38.58;;
36189;SDS011;22232;50.914;13.858;2024-03-02T06:05:56;101.00;;;42.10;;
36189;SDS011;22232;50.914;13.858;2024-03-02T06:08:23;98.50;;;41.60;;
36189;SDS011;22232;50.914;13.858;2024-03-02T06:10:51;108.88;;;42.55;;
36189;SDS011;22232;50.914;13.858;2024-03-02T06:13:19;108.32;;;42.17;;
36189;SDS011;22232;50.914;13.858;2024-03-02T06:15:46;107.55;;;42.70;;
36189;SDS011;22232;50.914;13.858;2024-03-02T06:18:14;107.72;;;43.97;;
36189;SDS011;22232;50.914;13.858;2024-03-02T06:20:41;99.93;;;41.13;;
36189;SDS011;22232;50.914;13.858;2024-03-02T06:23:09;102.97;;;41.60;;
36189;SDS011;22232;50.914;13.858;2024-03-02T06:25:37;108.78;;;41.28;;
36189;SDS011;22232;50.914;13.858;2024-03-02T06:28:04;93.68;;;37.67;;
36189;SDS011;22232;50.914;13.858;2024-03-02T06:30:32;92.05;;;38.55;;
36189;SDS011;22232;50.914;13.858;2024-03-02T06:33:00;82.75;;;34.83;;
36189;SDS011;22232;50.914;13.858;2024-03-02T06:35:27;77.85;;;33.35;;
36189;SDS011;22232;50.914;13.858;2024-03-02T06:37:55;70.57;;;31.70;;
36189;SDS011;22232;50.914;13.858;2024-03-02T06:40:22;60.65;;;28.02;;
36189;SDS011;22232;50.914;13.858;2024-03-02T06:42:50;62.30;;;28.38;;
36189;SDS011;22232;50.914;13.858;2024-03-02T06:45:17;54.33;;;26.88;;
36189;SDS011;22232;50.914;13.858;2024-03-02T06:47:45;51.80;;;25.08;;
36189;SDS011;22232;50.914;13.858;2024-03-02T06:53:19;43.08;;;22.45;;
36189;SDS011;22232;50.914;13.858;2024-03-02T06:55:47;43.92;;;20.88;;
36189;SDS011;22232;50.914;13.858;2024-03-02T06:58:14;36.25;;;18.92;;
36189;SDS011;22232;50.914;13.858;2024-03-02T07:00:42;34.55;;;18.13;;
36189;SDS011;22232;50.914;13.858;2024-03-02T07:03:11;32.20;;;16.75;;
36189;SDS011;22232;50.914;13.858;2024-03-02T07:05:39;34.90;;;18.30;;
36189;SDS011;22232;50.914;13.858;2024-03-02T07:08:07;28.77;;;16.15;;
36189;SDS011;22232;50.914;13.858;2024-03-02T07:10:35;26.55;;;14.35;;
36189;SDS011;22232;50.914;13.858;2024-03-02T07:13:02;22.95;;;13.15;;
36189;SDS011;22232;50.914;13.858;2024-03-02T07:15:30;19.95;;;12.48;;
36189;SDS011;22232;50.914;13.858;2024-03-02T07:18:12;20.85;;;11.98;;
36189;SDS011;22232;50.914;13.858;2024-03-02T07:20:40;18.95;;;10.93;;
36189;SDS011;22232;50.914;13.858;2024-03-02T07:23:07;18.20;;;10.95;;
36189;SDS011;22232;50.914;13.858;2024-03-02T07:25:35;14.77;;;9.13;;
36189;SDS011;22232;50.914;13.858;2024-03-02T07:28:06;14.10;;;9.52;;
36189;SDS011;22232;50.914;13.858;2024-03-02T07:30:34;16.60;;;9.63;;
36189;SDS011;22232;50.914;13.858;2024-03-02T07:33:02;15.27;;;8.90;;
36189;SDS011;22232;50.914;13.858;2024-03-02T07:35:29;16.50;;;9.75;;
36189;SDS011;22232;50.914;13.858;2024-03-02T07:37:59;16.90;;;9.38;;
36189;SDS011;22232;50.914;13.858;2024-03-02T07:40:26;18.30;;;9.60;;
36189;SDS011;22232;50.914;13.858;2024-03-02T07:42:54;16.45;;;9.10;;
36189;SDS011;22232;50.914;13.858;2024-03-02T07:45:22;20.65;;;10.60;;
36189;SDS011;22232;50.914;13.858;2024-03-02T07:47:50;21.27;;;11.10;;
36189;SDS011;22232;50.914;13.858;2024-03-02T07:50:17;19.45;;;10.52;;
36189;SDS011;22232;50.914;13.858;2024-03-02T07:52:45;19.45;;;10.40;;
36189;SDS011;22232;50.914;13.858;2024-03-02T07:55:12;18.33;;;10.32;;
36189;SDS011;22232;50.914;13.858;2024-03-02T07:57:40;19.58;;;10.32;;
36189;SDS011;22232;50.914;13.858;2024-03-02T08:00:08;18.05;;;10.23;;
36189;SDS011;22232;50.914;13.858;2024-03-02T08:02:39;16.52;;;9.13;;
36189;SDS011;22232;50.914;13.858;2024-03-02T08:05:08;20.48;;;11.25;;
36189;SDS011;22232;50.914;13.858;2024-03-02T08:07:35;21.65;;;11.15;;
36189;SDS011;22232;50.914;13.858;2024-03-02T08:10:03;22.30;;;11.48;;
36189;SDS011;22232;50.914;13.858;2024-03-02T08:12:31;19.13;;;10.30;;
36189;SDS011;22232;50.914;13.858;2024-03-02T08:14:59;20.15;;;10.98;;
36189;SDS011;22232;50.914;13.858;2024-03-02T08:17:26;18.63;;;11.18;;
36189;SDS011;22232;50.914;13.858;2024-03-02T08:19:54;22.30;;;11.15;;
36189;SDS011;22232;50.914;13.858;2024-03-02T08:22:22;20.20;;;11.73;;
36189;SDS011;22232;50.914;13.858;2024-03-02T08:24:52;19.15;;;10.43;;
36189;SDS011;22232;50.914;13.858;2024-03-02T08:27:20;21.73;;;11.48;;
36189;SDS011;22232;50.914;13.858;2024-03-02T08:29:47;23.08;;;11.55;;
36189;SDS011;22232;50.914;13.858;2024-03-02T08:32:15;23.30;;;11.55;;
36189;SDS011;22232;50.914;13.858;2024-03-02T08:34:44;21.20;;;11.50;;
36189;SDS011;22232;50.914;13.858;2024-03-02T08:37:11;23.00;;;12.20;;
36189;SDS011;22232;50.914;13.858;2024-03-02T08:39:39;28.20;;;13.38;;
36189;SDS011;22232;50.914;13.858;2024-03-02T08:42:07;26.08;;;14.10;;
36189;SDS011;22232;50.914;13.858;2024-03-02T08:44:34;27.27;;;14.05;;
36189;SDS011;22232;50.914;13.858;2024-03-02T08:47:02;30.08;;;14.88;;
36189;SDS011;22232;50.914;13.858;2024-03-02T08:49:30;39.20;;;18.20;;
36189;SDS011;22232;50.914;13.858;2024-03-02T08:51:57;35.67;;;17.00;;
36189;SDS011;22232;50.914;13.858;2024-03-02T08:54:25;36.28;;;17.85;;
36189;SDS011;22232;50.914;13.858;2024-03-02T08:56:52;35.88;;;18.33;;
36189;SDS011;22232;50.914;13.858;2024-03-02T08:59:20;38.88;;;18.45;;
36189;SDS011;22232;50.914;13.858;2024-03-02T09:01:47;37.60;;;18.27;;
36189;SDS011;22232;50.914;13.858;2024-03-02T09:04:15;35.42;;;17.08;;
36189;SDS011;22232;50.914;13.858;2024-03-02T09:06:43;34.35;;;17.42;;
36189;SDS011;22232;50.914;13.858;2024-03-02T09:09:10;37.33;;;18.33;;
36189;SDS011;22232;50.914;13.858;2024-03-02T09:11:38;41.05;;;18.27;;
36189;SDS011;22232;50.914;13.858;2024-03-02T09:14:06;37.55;;;18.05;;
36189;SDS011;22232;50.914;13.858;2024-03-02T09:16:33;36.50;;;17.48;;
36189;SDS011;22232;50.914;13.858;2024-03-02T09:19:01;32.78;;;16.08;;
36189;SDS011;22232;50.914;13.858;2024-03-02T09:21:29;34.40;;;17.00;;
36189;SDS011;22232;50.914;13.858;2024-03-02T09:23:57;28.67;;;15.13;;
36189;SDS011;22232;50.914;13.858;2024-03-02T09:26:25;30.73;;;15.55;;
36189;SDS011;22232;50.914;13.858;2024-03-02T09:28:52;31.05;;;14.68;;
36189;SDS011;22232;50.914;13.858;2024-03-02T09:31:20;32.40;;;15.70;;
36189;SDS011;22232;50.914;13.858;2024-03-02T09:33:48;31.15;;;16.15;;
36189;SDS011;22232;50.914;13.858;2024-03-02T09:36:19;31.60;;;15.43;;
36189;SDS011;22232;50.914;13.858;2024-03-02T09:38:47;30.58;;;15.30;;
36189;SDS011;22232;50.914;13.858;2024-03-02T09:41:15;32.00;;;15.75;;
36189;SDS011;22232;50.914;13.858;2024-03-02T09:43:43;30.80;;;15.00;;
36189;SDS011;22232;50.914;13.858;2024-03-02T09:46:11;33.60;;;16.60;;
36189;SDS011;22232;50.914;13.858;2024-03-02T09:48:39;32.42;;;14.98;;
36189;SDS011;22232;50.914;13.858;2024-03-02T09:51:06;30.38;;;15.20;;
36189;SDS011;22232;50.914;13.858;2024-03-02T09:53:36;30.98;;;14.93;;
36189;SDS011;22232;50.914;13.858;2024-03-02T09:56:03;32.55;;;15.38;;
36189;SDS011;22232;50.914;13.858;2024-03-02T09:58:31;29.60;;;14.77;;
36189;SDS011;22232;50.914;13.858;2024-03-02T10:00:59;28.67;;;14.77;;
36189;SDS011;22232;50.914;13.858;2024-03-02T10:03:27;29.45;;;14.48;;
36189;SDS011;22232;50.914;13.858;2024-03-02T10:05:56;30.83;;;14.13;;
36189;SDS011;22232;50.914;13.858;2024-03-02T10:08:47;28.02;;;13.90;;
36189;SDS011;22232;50.914;13.858;2024-03-02T10:11:25;28.52;;;14.25;;
36189;SDS011;22232;50.914;13.858;2024-03-02T10:14:09;27.65;;;14.35;;
36189;SDS011;22232;50.914;13.858;2024-03-02T10:16:41;30.65;;;14.35;;
36189;SDS011;22232;50.914;13.858;2024-03-02T10:19:16;35.10;;;14.77;;
36189;SDS011;22232;50.914;13.858;2024-03-02T10:21:46;29.38;;;14.38;;
36189;SDS011;22232;50.914;13.858;2024-03-02T10:24:15;30.65;;;13.75;;
36189;SDS011;22232;50.914;13.858;2024-03-02T10:26:43;32.65;;;15.48;;
36189;SDS011;22232;50.914;13.858;2024-03-02T10:29:11;28.73;;;14.02;;
36189;SDS011;22232;50.914;13.858;2024-03-02T10:31:39;31.23;;;14.55;;
36189;SDS011;22232;50.914;13.858;2024-03-02T10:34:09;30.48;;;15.50;;
36189;SDS011;22232;50.914;13.858;2024-03-02T10:36:40;32.15;;;15.85;;
36189;SDS011;22232;50.914;13.858;2024-03-02T10:39:09;37.88;;;15.95;;
36189;SDS011;22232;50.914;13.858;2024-03-02T10:41:37;39.20;;;17.35;;
36189;SDS011;22232;50.914;13.858;2024-03-02T10:44:06;34.67;;;16.48;;
36189;SDS011;22232;50.914;13.858;2024-03-02T10:46:37;33.28;;;16.33;;
36189;SDS011;22232;50.914;13.858;2024-03-02T10:49:05;33.55;;;17.20;;
36189;SDS011;22232;50.914;13.858;2024-03-02T10:51:35;40.30;;;17.88;;
36189;SDS011;22232;50.914;13.858;2024-03-02T10:54:04;36.08;;;17.65;;
36189;SDS011;22232;50.914;13.858;2024-03-02T10:56:39;33.45;;;16.15;;
36189;SDS011;22232;50.914;13.858;2024-03-02T11:01:35;37.10;;;16.98;;
36189;SDS011;22232;50.914;13.858;2024-03-02T11:04:07;33.22;;;16.35;;
36189;SDS011;22232;50.914;13.858;2024-03-02T11:06:36;38.83;;;16.40;;
36189;SDS011;22232;50.914;13.858;2024-03-02T11:09:06;39.00;;;17.55;;
36189;SDS011;22232;50.914;13.858;2024-03-02T11:11:40;36.28;;;16.35;;
36189;SDS011;22232;50.914;13.858;2024-03-02T11:14:13;33.63;;;16.15;;
36189;SDS011;22232;50.914;13.858;2024-03-02T11:16:41;35.95;;;16.05;;
36189;SDS011;22232;50.914;13.858;2024-03-02T11:19:10;36.63;;;15.82;;
36189;SDS011;22232;50.914;13.858;2024-03-02T11:21:43;35.87;;;13.17;;
36189;SDS011;22232;50.914;13.858;2024-03-02T11:26:48;31.63;;;13.95;;
36189;SDS011;22232;50.914;13.858;2024-03-02T11:32:06;24.88;;;10.60;;
36189;SDS011;22232;50.914;13.858;2024-03-02T11:34:48;26.13;;;12.32;;
36189;SDS011;22232;50.914;13.858;2024-03-02T11:37:17;25.88;;;11.23;;
36189;SDS011;22232;50.914;13.858;2024-03-02T11:39:46;29.05;;;11.60;;
36189;SDS011;22232;50.914;13.858;2024-03-02T11:42:16;22.63;;;11.07;;
36189;SDS011;22232;50.914;13.858;2024-03-02T11:44:45;26.23;;;11.77;;
36189;SDS011;22232;50.914;13.858;2024-03-02T11:47:15;24.45;;;11.25;;
36189;SDS011;22232;50.914;13.858;2024-03-02T11:49:44;25.40;;;11.43;;
36189;SDS011;22232;50.914;13.858;2024-03-02T11:52:21;20.08;;;11.05;;
36189;SDS011;22232;50.914;13.858;2024-03-02T11:54:50;23.58;;;11.63;;
36189;SDS011;22232;50.914;13.858;2024-03-02T11:57:19;30.52;;;12.18;;
36189;SDS011;22232;50.914;13.858;2024-03-02T11:59:50;24.55;;;12.80;;
36189;SDS011;22232;50.914;13.858;2024-03-02T12:02:20;29.02;;;13.43;;
36189;SDS011;22232;50.914;13.858;2024-03-02T12:04:49;31.02;;;16.55;;
36189;SDS011;22232;50.914;13.858;2024-03-02T12:07:20;31.13;;;16.25;;
36189;SDS011;22232;50.914;13.858;2024-03-02T12:09:59;49.10;;;17.45;;
36189;SDS011;22232;50.914;13.858;2024-03-02T12:12:30;38.65;;;15.77;;
36189;SDS011;22232;50.914;13.858;2024-03-02T12:14:58;35.80;;;16.23;;
36189;SDS011;22232;50.914;13.858;2024-03-02T12:17:28;35.88;;;16.90;;
36189;SDS011;22232;50.914;13.858;2024-03-02T12:19:56;36.83;;;17.70;;
36189;SDS011;22232;50.914;13.858;2024-03-02T12:22:24;36.03;;;18.05;;
36189;SDS011;22232;50.914;13.858;2024-03-02T12:24:51;41.80;;;20.30;;
36189;SDS011;22232;50.914;13.858;2024-03-02T12:27:19;37.05;;;18.42;;
36189;SDS011;22232;50.914;13.858;2024-03-02T12:29:48;39.83;;;18.55;;
36189;SDS011;22232;50.914;13.858;2024-03-02T12:32:17;37.88;;;18.08;;
36189;SDS011;22232;50.914;13.858;2024-03-02T12:34:46;34.30;;;17.73;;
36189;SDS011;22232;50.914;13.858;2024-03-02T12:37:15;35.67;;;17.65;;
36189;SDS011;22232;50.914;13.858;2024-03-02T12:39:44;32.92;;;17.30;;
36189;SDS011;22232;50.914;13.858;2024-03-02T12:42:13;37.53;;;17.70;;
36189;SDS011;22232;50.914;13.858;2024-03-02T12:44:41;36.70;;;17.38;;
36189;SDS011;22232;50.914;13.858;2024-03-02T12:47:08;33.20;;;16.25;;
36189;SDS011;22232;50.914;13.858;2024-03-02T12:49:36;32.55;;;16.08;;
36189;SDS011;22232;50.914;13.858;2024-03-02T12:52:03;31.65;;;15.90;;
36189;SDS011;22232;50.914;13.858;2024-03-02T12:54:31;30.23;;;15.02;;
36189;SDS011;22232;50.914;13.858;2024-03-02T12:57:00;27.83;;;14.25;;
36189;SDS011;22232;50.914;13.858;2024-03-02T12:59:29;39.35;;;16.85;;
36189;SDS011;22232;50.914;13.858;2024-03-02T13:01:57;30.73;;;17.10;;
36189;SDS011;22232;50.914;13.858;2024-03-02T13:04:25;39.80;;;17.45;;
36189;SDS011;22232;50.914;13.858;2024-03-02T13:06:54;36.45;;;17.33;;
36189;SDS011;22232;50.914;13.858;2024-03-02T13:09:23;41.05;;;18.50;;
36189;SDS011;22232;50.914;13.858;2024-03-02T13:11:51;35.42;;;18.10;;
36189;SDS011;22232;50.914;13.858;2024-03-02T13:14:21;37.20;;;18.70;;
36189;SDS011;22232;50.914;13.858;2024-03-02T13:16:49;47.53;;;21.95;;
36189;SDS011;22232;50.914;13.858;2024-03-02T13:19:19;45.78;;;21.98;;
36189;SDS011;22232;50.914;13.858;2024-03-02T13:21:47;41.15;;;21.40;;
36189;SDS011;22232;50.914;13.858;2024-03-02T13:24:15;48.47;;;21.40;;
36189;SDS011;22232;50.914;13.858;2024-03-02T13:26:42;45.88;;;22.30;;
36189;SDS011;22232;50.914;13.858;2024-03-02T13:29:10;50.40;;;24.38;;
36189;SDS011;22232;50.914;13.858;2024-03-02T13:31:37;48.15;;;23.55;;
36189;SDS011;22232;50.914;13.858;2024-03-02T13:34:05;46.22;;;22.35;;
36189;SDS011;22232;50.914;13.858;2024-03-02T13:36:32;39.30;;;22.45;;
36189;SDS011;22232;50.914;13.858;2024-03-02T13:39:00;38.60;;;21.35;;
36189;SDS011;22232;50.914;13.858;2024-03-02T13:41:28;43.70;;;22.23;;
36189;SDS011;22232;50.914;13.858;2024-03-02T13:43:55;40.97;;;20.40;;
36189;SDS011;22232;50.914;13.858;2024-03-02T13:46:23;42.05;;;20.25;;
36189;SDS011;22232;50.914;13.858;2024-03-02T13:48:50;37.08;;;18.40;;
36189;SDS011;22232;50.914;13.858;2024-03-02T13:51:18;40.25;;;20.17;;
36189;SDS011;22232;50.914;13.858;2024-03-02T13:53:46;45.47;;;21.08;;
36189;SDS011;22232;50.914;13.858;2024-03-02T13:56:13;42.30;;;20.63;;
36189;SDS011;22232;50.914;13.858;2024-03-02T13:58:42;43.78;;;21.17;;
36189;SDS011;22232;50.914;13.858;2024-03-02T14:01:10;42.47;;;20.70;;
36189;SDS011;22232;50.914;13.858;2024-03-02T14:03:38;38.58;;;20.10;;
36189;SDS011;22232;50.914;13.858;2024-03-02T14:06:05;40.25;;;20.27;;
36189;SDS011;22232;50.914;13.858;2024-03-02T14:08:33;37.92;;;20.05;;
36189;SDS011;22232;50.914;13.858;2024-03-02T14:11:03;39.97;;;19.30;;
36189;SDS011;22232;50.914;13.858;2024-03-02T14:13:30;37.45;;;20.67;;
36189;SDS011;22232;50.914;13.858;2024-03-02T14:15:58;37.78;;;20.08;;
36189;SDS011;22232;50.914;13.858;2024-03-02T14:18:25;37.58;;;19.27;;
36189;SDS011;22232;50.914;13.858;2024-03-02T14:20:53;33.95;;;18.83;;
36189;SDS011;22232;50.914;13.858;2024-03-02T14:23:21;37.58;;;18.40;;
36189;SDS011;22232;50.914;13.858;2024-03-02T14:25:48;35.53;;;17.40;;
36189;SDS011;22232;50.914;13.858;2024-03-02T14:28:16;36.45;;;18.90;;
36189;SDS011;22232;50.914;13.858;2024-03-02T14:31:03;37.00;;;18.10;;
36189;SDS011;22232;50.914;13.858;2024-03-02T14:33:31;38.15;;;20.60;;